aviador You're here:

MMMX Decoded Metar

MEXICO CITY in MEXICO
Report Time2018-06-25 10:43:00
UTC Time2018-06-25 11:44:20
Flight Rules vfr VFR
Wind120° at 04 kt
W.Decomp.*RWY 05: 1.8 kt HW 3.6 kt RCW
W.Rank120° ranks 14
Current wind is below 120° avg. (6.8)
Visibility9999 m
Phenomena:N/A
Clouds:Few 020 Hf
Broken 080 Hf
Broken 200 Hf
Expected CloudBase > 2,000 ft AGL from Temp-Dew spread
Ceiling8,000 ft
Temp15°C (ISA +15)
Dew Point10°C (72% RH)
AAT13.6°C
QNH1026 hPa
Density Alt8,783 ft
Elevation7,343 ft
Report Wrong Elevation
Raw Report
METAR MMMX 251043Z 12004KT 12SM FEW020 BKN080 BKN200 15/10 A3030 NOSIG
RMK 8/532=

Extra information for MMMX:More info

Metar Taf Metar & Taf Last 4 Metars F.Rules Stats Wind Profile Meteogram Temp Stats Airport Information Weather charts Add Link Nearby VenuesMetar ALERT Operation Metar Decoded Social comments